createdAt,value
2022-09-28T00:00:02.517Z,1000.7
2022-09-28T00:01:02.654Z,1000.8
2022-09-28T00:02:02.976Z,1000.7
2022-09-28T00:03:02.155Z,1000.7
2022-09-28T00:04:01.942Z,1000.7
2022-09-28T00:05:01.827Z,1000.7
2022-09-28T00:06:02.710Z,1000.7
2022-09-28T00:07:02.470Z,1000.6
2022-09-28T00:08:02.614Z,1000.6
2022-09-28T00:09:02.503Z,1000.6
2022-09-28T00:10:02.239Z,1000.6
2022-09-28T00:11:02.326Z,1000.5
2022-09-28T00:12:02.035Z,1000.5
2022-09-28T00:13:01.985Z,1000.5
2022-09-28T00:14:01.749Z,1000.6
2022-09-28T00:15:02.856Z,1000.5
2022-09-28T00:16:02.850Z,1000.5
2022-09-28T00:17:01.926Z,1000.6
2022-09-28T00:18:01.967Z,1000.5
2022-09-28T00:19:01.717Z,1000.5
2022-09-28T00:20:02.856Z,1000.5
2022-09-28T00:21:02.625Z,1000.5
2022-09-28T00:22:02.531Z,1000.5
2022-09-28T00:23:02.387Z,1000.5
2022-09-28T00:24:02.174Z,1000.5
2022-09-28T00:25:02.318Z,1000.5
2022-09-28T00:26:02.064Z,1000.5
2022-09-28T00:27:02.005Z,1000.5
2022-09-28T00:28:01.752Z,1000.5
2022-09-28T00:29:02.711Z,1000.4
2022-09-28T00:30:02.491Z,1000.5
2022-09-28T00:31:02.970Z,1000.4
2022-09-28T00:32:02.027Z,1000.4
2022-09-28T00:33:01.849Z,1000.5
2022-09-28T00:34:02.769Z,1000.5
2022-09-28T00:35:02.537Z,1000.5
2022-09-28T00:36:02.559Z,1000.5
2022-09-28T00:37:02.364Z,1000.5
2022-09-28T00:38:02.130Z,1000.4
2022-09-28T00:39:02.201Z,1000.4
2022-09-28T00:40:01.935Z,1000.5
2022-09-28T00:41:02.051Z,1000.4
2022-09-28T00:42:01.758Z,1000.5
2022-09-28T00:43:02.786Z,1000.4
2022-09-28T00:44:02.576Z,1000.4
2022-09-28T00:45:02.651Z,1000.4
2022-09-28T00:46:02.643Z,1000.5
2022-09-28T00:47:02.220Z,1000.4
2022-09-28T00:48:02.176Z,1000.4
2022-09-28T00:49:01.921Z,1000.4
2022-09-28T00:50:01.938Z,1000.5
2022-09-28T00:51:02.813Z,1000.5
2022-09-28T00:52:02.604Z,1000.5
2022-09-28T00:53:02.551Z,1000.5
2022-09-28T00:54:02.382Z,1000.5
2022-09-28T00:55:02.242Z,1000.5
2022-09-28T00:56:02.132Z,1000.5
2022-09-28T00:57:01.875Z,1000.5
2022-09-28T00:58:01.817Z,1000.5
2022-09-28T00:59:02.843Z,1000.5
2022-09-28T01:00:02.597Z,1000.4
2022-09-28T01:01:02.757Z,1000.5
2022-09-28T01:02:02.922Z,1000.5
2022-09-28T01:03:02.958Z,1000.5
2022-09-28T01:04:02.715Z,1000.5
2022-09-28T01:05:02.661Z,1000.5
2022-09-28T01:06:02.451Z,1000.5
2022-09-28T01:07:02.554Z,1000.5
2022-09-28T01:08:02.398Z,1000.5
2022-09-28T01:09:02.155Z,1000.5
2022-09-28T01:10:02.225Z,1000.5
2022-09-28T01:11:01.974Z,1000.6
2022-09-28T01:12:01.911Z,1000.6
2022-09-28T01:13:02.759Z,1000.5
2022-09-28T01:14:02.529Z,1000.6
2022-09-28T01:15:02.657Z,1000.6
2022-09-28T01:16:02.695Z,1000.6
2022-09-28T01:17:01.814Z,1000.6
2022-09-28T01:18:01.831Z,1000.6
2022-09-28T01:19:02.750Z,1000.6
2022-09-28T01:20:02.568Z,1000.6
2022-09-28T01:21:02.537Z,1000.6
2022-09-28T01:22:02.434Z,1000.5
2022-09-28T01:23:02.264Z,1000.6
2022-09-28T01:24:02.211Z,1000.6
2022-09-28T01:25:01.964Z,1000.6
2022-09-28T01:26:01.876Z,1000.6
2022-09-28T01:27:02.894Z,1000.6
2022-09-28T01:28:02.665Z,1000.6
2022-09-28T01:29:02.702Z,1000.6
2022-09-28T01:30:02.631Z,1000.7
2022-09-28T01:31:02.388Z,1000.6
2022-09-28T01:32:02.584Z,1000.6
2022-09-28T01:33:02.365Z,1000.6
2022-09-28T01:34:02.451Z,1000.6
2022-09-28T01:35:02.347Z,1000.6
2022-09-28T01:36:02.141Z,1000.6
2022-09-28T01:37:02.060Z,1000.6
2022-09-28T01:38:01.807Z,1000.6
2022-09-28T01:39:01.872Z,1000.6
2022-09-28T01:40:02.802Z,1000.5
2022-09-28T01:41:02.569Z,1000.5
2022-09-28T01:42:02.528Z,1000.5
2022-09-28T01:43:02.545Z,1000.5
2022-09-28T01:44:02.287Z,1000.5
2022-09-28T01:45:02.349Z,1000.6
2022-09-28T01:46:02.469Z,1000.6
2022-09-28T01:47:02.541Z,1000.7
2022-09-28T01:48:02.510Z,1000.7
2022-09-28T01:49:02.437Z,1000.7
2022-09-28T01:50:02.193Z,1000.7
2022-09-28T01:51:02.161Z,1000.6
2022-09-28T01:52:02.119Z,1000.6
2022-09-28T01:53:01.862Z,1000.6
2022-09-28T01:54:01.733Z,1000.7
2022-09-28T01:55:02.823Z,1000.6
2022-09-28T01:56:02.576Z,1000.6
2022-09-28T01:57:02.521Z,1000.6
2022-09-28T01:58:02.395Z,1000.7
2022-09-28T01:59:02.207Z,1000.6
2022-09-28T02:00:02.199Z,1000.6
2022-09-28T02:01:02.115Z,1000.6
2022-09-28T02:02:02.705Z,1000.6
2022-09-28T02:03:02.611Z,1000.7
2022-09-28T02:04:02.429Z,1000.6
2022-09-28T02:05:02.395Z,1000.6
2022-09-28T02:06:02.291Z,1000.6
2022-09-28T02:07:02.037Z,1000.6
2022-09-28T02:08:02.032Z,1000.7
2022-09-28T02:09:01.817Z,1000.7
2022-09-28T02:10:02.861Z,1000.7
2022-09-28T02:11:02.636Z,1000.7
2022-09-28T02:12:02.640Z,1000.7
2022-09-28T02:13:02.401Z,1000.6
2022-09-28T02:14:02.578Z,1000.7
2022-09-28T02:15:02.443Z,1000.7
2022-09-28T02:16:02.439Z,1000.7
2022-09-28T02:17:01.761Z,1000.7
2022-09-28T02:18:02.814Z,1000.7
2022-09-28T02:19:02.627Z,1000.7
2022-09-28T02:20:02.676Z,1000.7
2022-09-28T02:21:02.474Z,1000.6
2022-09-28T02:22:02.456Z,1000.6
2022-09-28T02:23:02.367Z,1000.6
2022-09-28T02:24:02.108Z,1000.6
2022-09-28T02:25:02.058Z,1000.6
2022-09-28T02:26:01.874Z,1000.6
2022-09-28T02:27:01.870Z,1000.6
2022-09-28T02:28:02.752Z,1000.6
2022-09-28T02:29:02.542Z,1000.6
2022-09-28T02:30:02.603Z,1000.7
2022-09-28T02:31:02.679Z,1000.6
2022-09-28T02:32:01.909Z,1000.6
2022-09-28T02:33:01.876Z,1000.6
2022-09-28T02:34:02.824Z,1000.6
2022-09-28T02:35:02.634Z,1000.6
2022-09-28T02:36:02.625Z,1000.6
2022-09-28T02:37:02.431Z,1000.6
2022-09-28T02:38:02.464Z,1000.6
2022-09-28T02:39:02.327Z,1000.6
2022-09-28T02:40:02.125Z,1000.6
2022-09-28T02:41:02.220Z,1000.6
2022-09-28T02:42:01.980Z,1000.6
2022-09-28T02:43:01.992Z,1000.6
2022-09-28T02:44:01.795Z,1000.7
2022-09-28T02:45:02.897Z,1000.7
2022-09-28T02:46:02.823Z,1000.6
2022-09-28T02:47:02.036Z,1000.6
2022-09-28T02:48:02.115Z,1000.6
2022-09-28T02:49:22.699Z,1000.6
2022-09-28T02:50:02.468Z,1000.6
2022-09-28T02:51:02.501Z,1000.6
2022-09-28T02:52:02.434Z,1000.6
2022-09-28T02:53:02.250Z,1000.6
2022-09-28T02:54:02.259Z,1000.6
2022-09-28T02:55:02.337Z,1000.6
2022-09-28T02:56:02.169Z,1000.6
2022-09-28T02:57:02.131Z,1000.6
2022-09-28T02:58:01.896Z,1000.6
2022-09-28T02:59:01.906Z,1000.6
2022-09-28T03:00:02.971Z,1000.6
2022-09-28T03:01:01.946Z,1000.6
2022-09-28T03:02:02.175Z,1000.6
2022-09-28T03:03:02.130Z,1000.6
2022-09-28T03:04:01.881Z,1000.5
2022-09-28T03:05:01.854Z,1000.6
2022-09-28T03:06:02.722Z,1000.6
2022-09-28T03:07:02.520Z,1000.6
2022-09-28T03:08:02.510Z,1000.6
2022-09-28T03:09:02.399Z,1000.6
2022-09-28T03:10:02.179Z,1000.7
2022-09-28T03:11:02.329Z,1000.7
2022-09-28T03:12:02.131Z,1000.7
2022-09-28T03:13:02.115Z,1000.7
2022-09-28T03:14:01.840Z,1000.7
2022-09-28T03:15:01.952Z,1000.7
2022-09-28T03:16:03.025Z,1000.7
2022-09-28T03:17:01.861Z,1000.7
2022-09-28T03:18:01.989Z,1000.7
2022-09-28T03:19:01.754Z,1000.7
2022-09-28T03:20:02.787Z,1000.7
2022-09-28T03:21:02.547Z,1000.7
2022-09-28T03:22:02.531Z,1000.7
2022-09-28T03:23:25.780Z,1000.7
2022-09-28T03:24:02.560Z,1000.7
2022-09-28T03:25:02.514Z,1000.7
2022-09-28T03:26:02.408Z,1000.8
2022-09-28T03:27:02.196Z,1000.8
2022-09-28T03:28:02.182Z,1000.8
2022-09-28T03:29:01.987Z,1000.7
2022-09-28T03:30:01.943Z,1000.8
2022-09-28T03:31:01.790Z,1000.7
2022-09-28T03:32:02.234Z,1000.7
2022-09-28T03:33:02.163Z,1000.7
2022-09-28T03:34:01.910Z,1000.7
2022-09-28T03:35:01.915Z,1000.8
2022-09-28T03:36:02.793Z,1000.7
2022-09-28T03:37:02.586Z,1000.8
2022-09-28T03:38:02.548Z,1000.7
2022-09-28T03:39:02.426Z,1000.7
2022-09-28T03:40:02.290Z,1000.7
2022-09-28T03:41:02.397Z,1000.6
2022-09-28T03:42:02.289Z,1000.6
2022-09-28T03:43:02.113Z,1000.7
2022-09-28T03:44:02.146Z,1000.7
2022-09-28T03:45:01.938Z,1000.7
2022-09-28T03:46:02.220Z,1000.7
2022-09-28T03:47:02.476Z,1000.7
2022-09-28T03:48:02.259Z,1000.7
2022-09-28T03:49:02.207Z,1000.7
2022-09-28T03:50:01.899Z,1000.7
2022-09-28T03:51:01.943Z,1000.8
2022-09-28T03:52:02.823Z,1000.7
2022-09-28T03:53:02.577Z,1000.7
2022-09-28T03:54:02.596Z,1000.8
2022-09-28T03:55:02.404Z,1000.8
2022-09-28T03:56:02.424Z,1000.8
2022-09-28T03:57:02.297Z,1000.8
2022-09-28T03:58:02.194Z,1000.9
2022-09-28T03:59:01.987Z,1000.9
2022-09-28T04:00:01.822Z,1000.9
2022-09-28T04:01:02.109Z,1000.9
2022-09-28T04:02:02.599Z,1000.9
2022-09-28T04:03:02.502Z,1000.9
2022-09-28T04:04:02.344Z,1000.8
2022-09-28T04:05:02.292Z,1000.9
2022-09-28T04:06:02.051Z,1000.8
2022-09-28T04:07:02.046Z,1000.9
2022-09-28T04:08:01.818Z,1000.9
2022-09-28T04:09:01.863Z,1000.8
2022-09-28T04:10:02.742Z,1000.8
2022-09-28T04:11:02.538Z,1000.8
2022-09-28T04:12:05.013Z,1000.9
2022-09-28T04:13:01.778Z,1000.9
2022-09-28T04:14:02.766Z,1000.8
2022-09-28T04:15:02.604Z,1000.9
2022-09-28T04:16:02.788Z,1000.8
2022-09-28T04:17:01.903Z,1000.8
2022-09-28T04:18:01.862Z,1000.8
2022-09-28T04:19:03.246Z,1000.8
2022-09-28T04:20:02.108Z,1000.8
2022-09-28T04:21:01.868Z,1000.8
2022-09-28T04:22:01.756Z,1000.8
2022-09-28T04:23:02.755Z,1000.7
2022-09-28T04:24:02.566Z,1000.7
2022-09-28T04:25:02.584Z,1000.8
2022-09-28T04:26:02.463Z,1000.8
2022-09-28T04:27:02.224Z,1000.7
2022-09-28T04:28:02.153Z,1000.8
2022-09-28T04:29:07.294Z,1000.8
2022-09-28T04:30:02.012Z,1000.9
2022-09-28T04:31:01.991Z,1000.8
2022-09-28T04:32:02.616Z,1000.8
2022-09-28T04:33:02.442Z,1000.8
2022-09-28T04:34:02.451Z,1000.8
2022-09-28T04:35:02.254Z,1000.8
2022-09-28T04:36:02.066Z,1000.8
2022-09-28T04:37:02.033Z,1000.9
2022-09-28T04:38:01.748Z,1000.8
2022-09-28T04:39:02.770Z,1000.7
2022-09-28T04:40:02.561Z,1000.9
2022-09-28T04:41:02.874Z,1000.8
2022-09-28T04:42:02.783Z,1000.8
2022-09-28T04:43:02.563Z,1000.8
2022-09-28T04:44:02.604Z,1000.7
2022-09-28T04:45:02.459Z,1000.8
2022-09-28T04:46:02.468Z,1000.8
2022-09-28T04:47:05.801Z,1000.8
2022-09-28T04:48:02.616Z,1000.8
2022-09-28T04:49:02.472Z,1000.8
2022-09-28T04:50:02.499Z,1000.8
2022-09-28T04:51:02.395Z,1000.7
2022-09-28T04:52:02.223Z,1000.8
2022-09-28T04:53:02.198Z,1000.8
2022-09-28T04:54:01.972Z,1000.8
2022-09-28T04:55:02.013Z,1000.8
2022-09-28T04:56:01.768Z,1000.8
2022-09-28T04:57:02.744Z,1000.7
2022-09-28T04:58:02.639Z,1000.8
2022-09-28T04:59:02.454Z,1000.8
2022-09-28T05:00:02.482Z,1000.8
2022-09-28T05:01:02.464Z,1000.8
2022-09-28T05:02:02.090Z,1000.8
2022-09-28T05:03:01.924Z,1000.8
2022-09-28T05:04:01.785Z,1000.8
2022-09-28T05:05:02.762Z,1000.7
2022-09-28T05:06:02.586Z,1000.8
2022-09-28T05:07:02.541Z,1000.8
2022-09-28T05:08:02.434Z,1000.8
2022-09-28T05:09:02.325Z,1000.8
2022-09-28T05:10:02.131Z,1000.8
2022-09-28T05:11:01.981Z,1000.8
2022-09-28T05:12:01.935Z,1000.7
2022-09-28T05:13:02.817Z,1000.8
2022-09-28T05:14:02.646Z,1000.8
2022-09-28T05:15:02.619Z,1000.7
2022-09-28T05:16:06.263Z,1000.7
2022-09-28T05:17:02.375Z,1000.7
2022-09-28T05:18:02.286Z,1000.7
2022-09-28T05:19:02.037Z,1000.7
2022-09-28T05:20:02.030Z,1000.6
2022-09-28T05:21:02.572Z,1000.7
2022-09-28T05:22:02.365Z,1000.6
2022-09-28T05:23:02.327Z,1000.7
2022-09-28T05:24:02.104Z,1000.7
2022-09-28T05:25:02.031Z,1000.7
2022-09-28T05:26:01.780Z,1000.8
2022-09-28T05:27:02.787Z,1000.7
2022-09-28T05:28:02.615Z,1000.8
2022-09-28T05:29:02.635Z,1000.8
2022-09-28T05:30:02.377Z,1000.9
2022-09-28T05:31:02.385Z,1000.8
2022-09-28T05:32:02.987Z,1000.9
2022-09-28T05:33:01.790Z,1000.8
2022-09-28T05:34:02.732Z,1000.9
2022-09-28T05:35:02.571Z,1000.8
2022-09-28T05:36:02.628Z,1000.9
2022-09-28T05:37:02.489Z,1000.8
2022-09-28T05:38:02.290Z,1000.8
2022-09-28T05:39:02.242Z,1000.9
2022-09-28T05:40:01.994Z,1000.9
2022-09-28T05:41:07.342Z,1000.9
2022-09-28T05:42:02.249Z,1000.9
2022-09-28T05:43:02.036Z,1000.9
2022-09-28T05:44:02.020Z,1000.8
2022-09-28T05:45:01.761Z,1000.8
2022-09-28T05:46:02.916Z,1000.8
2022-09-28T05:47:02.270Z,1000.8
2022-09-28T05:48:02.245Z,1000.8
2022-09-28T05:49:02.018Z,1000.8
2022-09-28T05:50:01.939Z,1000.9
2022-09-28T05:51:02.788Z,1000.9
2022-09-28T05:52:02.607Z,1000.9
2022-09-28T05:53:02.619Z,1000.9
2022-09-28T05:54:14.106Z,1000.9
2022-09-28T05:55:01.881Z,1001
2022-09-28T05:56:01.877Z,1000.9
2022-09-28T05:57:02.746Z,1000.9
2022-09-28T05:58:02.501Z,1000.9
2022-09-28T05:59:02.514Z,1001
2022-09-28T06:00:02.381Z,1001
2022-09-28T06:01:02.360Z,1001
2022-09-28T06:02:02.719Z,1000.9
2022-09-28T06:03:09.710Z,1000.9
2022-09-28T06:04:02.479Z,1000.8
2022-09-28T06:05:02.481Z,1001
2022-09-28T06:06:02.340Z,1000.9
2022-09-28T06:07:02.113Z,1000.9
2022-09-28T06:08:02.109Z,1000.9
2022-09-28T06:09:01.807Z,1000.9
2022-09-28T06:10:02.750Z,1001
2022-09-28T06:11:02.570Z,1000.9
2022-09-28T06:12:02.607Z,1000.9
2022-09-28T06:13:02.468Z,1000.9
2022-09-28T06:14:02.232Z,1000.9
2022-09-28T06:15:02.187Z,1000.9
2022-09-28T06:16:01.934Z,1000.8
2022-09-28T06:17:02.628Z,1000.9
2022-09-28T06:18:02.518Z,1000.9
2022-09-28T06:19:02.365Z,1000.8
2022-09-28T06:20:02.166Z,1000.8
2022-09-28T06:21:02.089Z,1000.9
2022-09-28T06:22:01.808Z,1000.8
2022-09-28T06:23:02.916Z,1000.8
2022-09-28T06:24:02.662Z,1000.8
2022-09-28T06:25:02.639Z,1000.8
2022-09-28T06:26:02.404Z,1000.7
2022-09-28T06:27:02.374Z,1000.7
2022-09-28T06:28:02.253Z,1000.7
2022-09-28T06:29:01.985Z,1000.6
2022-09-28T06:30:01.938Z,1000.7
2022-09-28T06:31:03.177Z,1000.7
2022-09-28T06:32:02.178Z,1000.6
2022-09-28T06:33:02.107Z,1000.6
2022-09-28T06:34:01.946Z,1000.6
2022-09-28T06:35:01.698Z,1000.6
2022-09-28T06:36:02.713Z,1000.7
2022-09-28T06:37:02.460Z,1000.7
2022-09-28T06:38:02.422Z,1000.7
2022-09-28T06:39:02.314Z,1000.6
2022-09-28T06:40:02.022Z,1000.6
2022-09-28T06:41:02.130Z,1000.6
2022-09-28T06:42:01.901Z,1000.6
2022-09-28T06:43:01.890Z,1000.7
2022-09-28T06:44:02.760Z,1000.6
2022-09-28T06:45:02.576Z,1000.7
2022-09-28T06:46:02.777Z,1000.6
2022-09-28T06:47:01.784Z,1000.6
2022-09-28T06:48:02.781Z,1000.6
2022-09-28T06:49:02.531Z,1000.6
2022-09-28T06:50:02.534Z,1000.6
2022-09-28T06:51:02.424Z,1000.8
2022-09-28T06:52:02.166Z,1000.8
2022-09-28T06:53:02.095Z,1000.7
2022-09-28T06:54:01.802Z,1000.7
2022-09-28T06:55:02.784Z,1000.7
2022-09-28T06:56:02.635Z,1000.7
2022-09-28T06:57:02.593Z,1000.7
2022-09-28T06:58:02.344Z,1000.7
2022-09-28T06:59:02.328Z,1000.8
2022-09-28T07:00:02.100Z,1000.8
2022-09-28T07:01:02.308Z,1000.8
2022-09-28T07:02:02.584Z,1000.7
2022-09-28T07:03:02.407Z,1000.9
2022-09-28T07:04:02.423Z,1000.7
2022-09-28T07:05:02.289Z,1000.7
2022-09-28T07:06:02.007Z,1000.7
2022-09-28T07:07:01.982Z,1000.8
2022-09-28T07:08:01.773Z,1000.7
2022-09-28T07:09:34.487Z,1000.8
2022-09-28T07:10:02.597Z,1000.8
2022-09-28T07:11:02.583Z,1000.8
2022-09-28T07:12:02.407Z,1000.9
2022-09-28T07:13:02.821Z,1000.9
2022-09-28T07:14:02.743Z,1000.8
2022-09-28T07:15:02.510Z,1000.8
2022-09-28T07:16:02.511Z,1000.8
2022-09-28T07:17:15.345Z,1000.7
2022-09-28T07:18:05.185Z,1000.7
2022-09-28T07:19:01.910Z,1000.7
2022-09-28T07:20:19.698Z,1000.7
2022-09-28T07:21:02.736Z,1000.7
2022-09-28T07:22:06.047Z,1000.7
2022-09-28T07:23:20.047Z,1000.7
2022-09-28T07:24:01.819Z,1000.7
2022-09-28T07:25:02.822Z,1000.7
2022-09-28T07:26:04.325Z,1000.9
2022-09-28T07:27:01.839Z,1000.8
2022-09-28T07:28:01.856Z,1000.7
2022-09-28T07:29:02.713Z,1000.7
2022-09-28T07:30:02.481Z,1000.7
2022-09-28T07:31:02.595Z,1000.8
2022-09-28T07:32:01.747Z,1000.7
2022-09-28T07:33:02.715Z,1000.6
2022-09-28T07:34:02.499Z,1000.7
2022-09-28T07:35:02.441Z,1000.7
2022-09-28T07:36:02.360Z,1000.7
2022-09-28T07:37:02.133Z,1000.7
2022-09-28T07:38:02.089Z,1000.8
2022-09-28T07:39:01.835Z,1000.8
2022-09-28T07:40:02.741Z,1000.7
2022-09-28T07:41:02.732Z,1000.8
2022-09-28T07:42:03.540Z,1000.8
2022-09-28T07:43:02.280Z,1000.8
2022-09-28T07:44:02.214Z,1000.8
2022-09-28T07:45:01.945Z,1000.7
2022-09-28T07:46:02.179Z,1000.8
2022-09-28T07:47:02.020Z,1000.8
2022-09-28T07:48:02.346Z,1000.8
2022-09-28T07:49:02.141Z,1000.7
2022-09-28T07:50:02.063Z,1000.7
2022-09-28T07:51:01.821Z,1000.7
2022-09-28T07:52:02.809Z,1000.7
2022-09-28T07:53:02.559Z,1000.7
2022-09-28T07:54:02.538Z,1000.7
2022-09-28T07:55:07.807Z,1000.7
2022-09-28T07:56:02.566Z,1000.7
2022-09-28T07:57:02.560Z,1000.8
2022-09-28T07:58:02.440Z,1000.8
2022-09-28T07:59:02.153Z,1000.7
2022-09-28T08:00:02.200Z,1000.7
2022-09-28T08:01:02.043Z,1000.7
2022-09-28T08:02:02.624Z,1000.9
2022-09-28T08:03:02.515Z,1000.9
2022-09-28T08:04:02.368Z,1000.8
2022-09-28T08:05:02.126Z,1000.8
2022-09-28T08:06:02.108Z,1000.8
2022-09-28T08:07:01.789Z,1000.8
2022-09-28T08:08:02.812Z,1000.8
2022-09-28T08:09:02.613Z,1000.8
2022-09-28T08:10:02.540Z,1000.8
2022-09-28T08:11:02.366Z,1000.8
2022-09-28T08:12:02.379Z,1000.8
2022-09-28T08:13:07.549Z,1000.8
2022-09-28T08:14:02.530Z,1000.7
2022-09-28T08:15:02.516Z,1000.7
2022-09-28T08:16:02.415Z,1000.8
2022-09-28T08:17:02.595Z,1000.7
2022-09-28T08:18:03.612Z,1000.6
2022-09-28T08:19:02.449Z,1000.7
2022-09-28T08:20:02.326Z,1000.7
2022-09-28T08:21:02.254Z,1000.6
2022-09-28T08:22:01.968Z,1000.6
2022-09-28T08:23:01.880Z,1000.7
2022-09-28T08:24:02.762Z,1000.6
2022-09-28T08:25:02.536Z,1000.6
2022-09-28T08:26:02.496Z,1000.6
2022-09-28T08:27:02.378Z,1000.6
2022-09-28T08:28:02.164Z,1000.6
2022-09-28T08:29:02.081Z,1000.7
2022-09-28T08:30:01.838Z,1000.5
2022-09-28T08:31:03.076Z,1000.6
2022-09-28T08:32:02.389Z,1000.6
2022-09-28T08:33:02.247Z,1000.6
2022-09-28T08:34:01.987Z,1000.5
2022-09-28T08:35:01.968Z,1000.6
2022-09-28T08:36:01.742Z,1000.6
2022-09-28T08:37:02.717Z,1000.6
2022-09-28T08:38:02.502Z,1000.6
2022-09-28T08:39:02.462Z,1000.5
2022-09-28T08:40:02.366Z,1000.7
2022-09-28T08:41:02.325Z,1000.7
2022-09-28T08:42:02.136Z,1000.5
2022-09-28T08:43:01.871Z,1000.6
2022-09-28T08:44:02.807Z,1000.6
2022-09-28T08:45:02.598Z,1000.5
2022-09-28T08:46:02.755Z,1000.6
2022-09-28T08:47:01.682Z,1000.5
2022-09-28T08:48:02.680Z,1000.5
2022-09-28T08:49:26.550Z,1000.5
2022-09-28T08:50:02.416Z,1000.5
2022-09-28T08:51:02.349Z,1000.6
2022-09-28T08:52:02.112Z,1000.6
2022-09-28T08:53:02.049Z,1000.6
2022-09-28T08:54:01.802Z,1000.6
2022-09-28T08:55:02.758Z,1000.6
2022-09-28T08:56:02.565Z,1000.5
2022-09-28T08:57:02.530Z,1000.6
2022-09-28T08:58:02.333Z,1000.6
2022-09-28T08:59:02.073Z,1000.6
2022-09-28T09:00:02.056Z,1000.6
2022-09-28T09:01:01.973Z,1000.6
2022-09-28T09:02:02.740Z,1000.7
2022-09-28T09:03:02.598Z,1000.6
2022-09-28T09:04:02.361Z,1000.7
2022-09-28T09:05:02.819Z,1000.7
2022-09-28T09:06:02.669Z,1000.6
2022-09-28T09:07:02.417Z,1000.7
2022-09-28T09:08:02.422Z,1000.6
2022-09-28T09:09:02.355Z,1000.6
2022-09-28T09:10:02.074Z,1000.6
2022-09-28T09:11:02.017Z,1000.6
2022-09-28T09:12:01.762Z,1000.6
2022-09-28T09:13:02.743Z,1000.6
2022-09-28T09:14:02.478Z,1000.5
2022-09-28T09:15:02.472Z,1000.5
2022-09-28T09:16:02.418Z,1000.6
2022-09-28T09:17:02.617Z,1000.7
2022-09-28T09:18:02.495Z,1000.7
2022-09-28T09:19:02.353Z,1000.7
2022-09-28T09:20:02.103Z,1000.7
2022-09-28T09:21:02.071Z,1000.7
2022-09-28T09:22:01.873Z,1000.8
2022-09-28T09:23:02.762Z,1000.7
2022-09-28T09:24:02.555Z,1000.7
2022-09-28T09:25:02.505Z,1000.7
2022-09-28T09:26:02.373Z,1000.7
2022-09-28T09:27:02.118Z,1000.8
2022-09-28T09:28:02.088Z,1000.6
2022-09-28T09:29:01.837Z,1000.7
2022-09-28T09:30:02.784Z,1000.7
2022-09-28T09:31:02.677Z,1000.7
2022-09-28T09:32:01.837Z,1000.7
2022-09-28T09:33:01.816Z,1000.7
2022-09-28T09:34:02.707Z,1000.7
2022-09-28T09:35:02.438Z,1000.7
2022-09-28T09:36:02.495Z,1000.7
2022-09-28T09:37:02.343Z,1000.7
2022-09-28T09:38:02.099Z,1000.7
2022-09-28T09:39:02.033Z,1000.7
2022-09-28T09:40:01.845Z,1000.7
2022-09-28T09:41:03.131Z,1000.8
2022-09-28T09:42:01.938Z,1000.8
2022-09-28T09:43:01.847Z,1000.6
2022-09-28T09:44:02.763Z,1000.6
2022-09-28T09:45:02.546Z,1000.6
2022-09-28T09:46:02.720Z,1000.6
2022-09-28T09:47:02.664Z,1000.6
2022-09-28T09:48:02.485Z,1000.5
2022-09-28T09:49:02.446Z,1000.6
2022-09-28T09:50:09.320Z,1000.5
2022-09-28T09:51:02.085Z,1000.7
2022-09-28T09:52:01.982Z,1000.7
2022-09-28T09:53:01.755Z,1000.7
2022-09-28T09:54:02.734Z,1000.6
2022-09-28T09:55:02.509Z,1000.6
2022-09-28T09:56:02.450Z,1000.6
2022-09-28T09:57:02.326Z,1000.6
2022-09-28T09:58:02.078Z,1000.6
2022-09-28T09:59:02.088Z,1000.6
2022-09-28T10:00:01.846Z,1000.7
2022-09-28T10:01:02.966Z,1000.6
2022-09-28T10:02:02.145Z,1000.6
2022-09-28T10:03:02.031Z,1000.6
2022-09-28T10:04:01.779Z,1000.6
2022-09-28T10:05:02.722Z,1000.6
2022-09-28T10:06:02.462Z,1000.6
2022-09-28T10:07:02.469Z,1000.6
2022-09-28T10:08:02.306Z,1000.6
2022-09-28T10:09:02.078Z,1000.5
2022-09-28T10:10:01.992Z,1000.5
2022-09-28T10:11:01.793Z,1000.6
2022-09-28T10:12:02.758Z,1000.5
2022-09-28T10:13:02.540Z,1000.6
2022-09-28T10:14:02.443Z,1000.6
2022-09-28T10:15:02.338Z,1000.5
2022-09-28T10:16:02.165Z,1000.4
2022-09-28T10:17:02.629Z,1000.4
2022-09-28T10:18:02.543Z,1000.4
2022-09-28T10:19:02.330Z,1000.4
2022-09-28T10:20:02.298Z,1000.4
2022-09-28T10:21:02.056Z,1000.3
2022-09-28T10:22:01.971Z,1000.3
2022-09-28T10:23:01.695Z,1000.3
2022-09-28T10:24:02.845Z,1000.4
2022-09-28T10:25:02.657Z,1000.4
2022-09-28T10:26:02.586Z,1000.4
2022-09-28T10:27:02.327Z,1000.4
2022-09-28T10:28:02.374Z,1000.3
2022-09-28T10:29:02.129Z,1000.3
2022-09-28T10:30:02.022Z,1000.3
2022-09-28T10:31:02.207Z,1000.3
2022-09-28T10:32:02.471Z,1000.3
2022-09-28T10:33:02.438Z,1000.3
2022-09-28T10:34:02.448Z,1000.3
2022-09-28T10:35:02.241Z,1000.3
2022-09-28T10:36:02.135Z,1000.2
2022-09-28T10:37:01.865Z,1000.3
2022-09-28T10:38:01.772Z,1000.3
2022-09-28T10:39:02.602Z,1000.1
2022-09-28T10:40:02.428Z,1000.2
2022-09-28T10:41:02.642Z,1000.2
2022-09-28T10:42:02.709Z,1000.2
2022-09-28T10:43:02.451Z,1000.2
2022-09-28T10:44:02.410Z,1000.2
2022-09-28T10:45:02.284Z,1000.2
2022-09-28T10:46:02.420Z,1000.1
2022-09-28T10:47:02.324Z,1000.1
2022-09-28T10:48:02.234Z,1000
2022-09-28T10:49:01.963Z,1000.1
2022-09-28T10:50:01.905Z,1000.1
2022-09-28T10:51:02.760Z,1000
2022-09-28T10:52:02.557Z,1000
2022-09-28T10:53:02.448Z,999.9
2022-09-28T10:54:02.370Z,999.9
2022-09-28T10:55:02.119Z,1000
2022-09-28T10:56:02.023Z,1000
2022-09-28T10:57:01.761Z,999.9
2022-09-28T10:58:02.742Z,999.9
2022-09-28T10:59:02.502Z,999.9
2022-09-28T11:00:02.466Z,999.8
2022-09-28T11:01:02.527Z,999.9
2022-09-28T11:02:02.757Z,999.9
2022-09-28T11:03:02.652Z,999.8
2022-09-28T11:04:02.463Z,999.8
2022-09-28T11:05:02.423Z,999.8
2022-09-28T11:06:02.135Z,999.8
2022-09-28T11:07:02.291Z,999.9
2022-09-28T11:08:02.121Z,999.8
2022-09-28T11:09:02.033Z,999.8
2022-09-28T11:10:01.742Z,999.7
2022-09-28T11:11:02.714Z,999.8
2022-09-28T11:12:02.517Z,999.9
2022-09-28T11:13:02.523Z,1000
2022-09-28T11:14:02.356Z,999.8
2022-09-28T11:15:02.654Z,999.8
2022-09-28T11:16:02.575Z,999.7
2022-09-28T11:17:02.011Z,999.8
2022-09-28T11:18:01.864Z,999.7
2022-09-28T11:19:02.763Z,999.8
2022-09-28T11:20:02.522Z,999.8
2022-09-28T11:21:02.458Z,999.7
2022-09-28T11:22:02.291Z,999.6
2022-09-28T11:23:01.976Z,999.6
2022-09-28T11:24:01.947Z,999.6
2022-09-28T11:25:02.807Z,999.7
2022-09-28T11:26:02.588Z,999.6
2022-09-28T11:27:02.491Z,999.5
2022-09-28T11:28:02.362Z,999.4
2022-09-28T11:29:02.135Z,999.7
2022-09-28T11:30:02.083Z,999.7
2022-09-28T11:31:02.038Z,999.6
2022-09-28T11:32:02.164Z,999.6
2022-09-28T11:33:02.193Z,999.6
2022-09-28T11:34:01.912Z,999.6
2022-09-28T11:35:01.860Z,999.6
2022-09-28T11:36:02.698Z,999.6
2022-09-28T11:37:02.516Z,999.5
2022-09-28T11:38:02.463Z,999.8
2022-09-28T11:39:02.295Z,999.6
2022-09-28T11:40:02.208Z,999.6
2022-09-28T11:41:02.249Z,999.6
2022-09-28T11:42:01.941Z,999.6
2022-09-28T11:43:02.074Z,999.5
2022-09-28T11:44:01.814Z,999.5
2022-09-28T11:45:02.802Z,999.6
2022-09-28T11:46:02.875Z,999.6
2022-09-28T11:47:01.748Z,999.5
2022-09-28T11:48:02.765Z,999.6
2022-09-28T11:49:02.515Z,999.5
2022-09-28T11:50:02.508Z,999.5
2022-09-28T11:51:02.339Z,999.4
2022-09-28T11:52:02.101Z,999.5
2022-09-28T11:53:02.063Z,999.5
2022-09-28T11:54:01.817Z,999.5
2022-09-28T11:55:02.741Z,999.4
2022-09-28T11:56:09.328Z,999.4
2022-09-28T11:57:02.060Z,999.4
2022-09-28T11:58:01.959Z,999.4
2022-09-28T11:59:01.737Z,999.4
2022-09-28T12:00:02.743Z,999.3
2022-09-28T12:01:02.579Z,999.4
2022-09-28T12:02:02.825Z,999.4
2022-09-28T12:03:03.201Z,999.4
2022-09-28T12:04:02.018Z,999.4
2022-09-28T12:05:01.968Z,999.4
2022-09-28T12:06:01.726Z,999.4
2022-09-28T12:07:02.675Z,999.5
2022-09-28T12:08:02.417Z,999.5
2022-09-28T12:09:02.470Z,999.5
2022-09-28T12:10:02.320Z,999.4
2022-09-28T12:11:02.065Z,999.8
2022-09-28T12:12:01.972Z,999.6
2022-09-28T12:13:01.752Z,999.5
2022-09-28T12:14:02.770Z,999.5
2022-09-28T12:15:02.516Z,999.5
2022-09-28T12:17:08.880Z,999.4
2022-09-28T12:17:23.075Z,999.4
2022-09-28T12:18:02.071Z,999.3
2022-09-28T12:19:02.193Z,999.4
2022-09-28T12:20:01.990Z,999.6
2022-09-28T12:21:05.726Z,999.4
2022-09-28T12:22:02.532Z,999.4
2022-09-28T12:23:02.344Z,999.5
2022-09-28T12:24:02.360Z,999.4
2022-09-28T12:25:02.140Z,999.4
2022-09-28T12:26:02.071Z,999.4
2022-09-28T12:27:01.803Z,999.4
2022-09-28T12:28:02.824Z,999.4
2022-09-28T12:29:02.580Z,999.4
2022-09-28T12:30:02.885Z,999.4
2022-09-28T12:31:02.888Z,999.4
2022-09-28T12:32:01.746Z,999.4